createdAt,value
2022-09-21T00:00:38.744Z,23.53
2022-09-21T00:02:38.770Z,23.61
2022-09-21T00:04:38.750Z,23.62
2022-09-21T00:06:38.803Z,23.55
2022-09-21T00:08:38.737Z,23.38
2022-09-21T00:10:38.739Z,23.61
2022-09-21T00:12:38.788Z,23.72
2022-09-21T00:14:38.930Z,23.72
2022-09-21T00:16:38.855Z,23.75
2022-09-21T00:18:38.918Z,23.56
2022-09-21T00:20:38.774Z,23.80
2022-09-21T00:22:38.848Z,23.75
2022-09-21T00:24:38.732Z,23.68
2022-09-21T00:26:38.737Z,23.75
2022-09-21T00:28:38.910Z,23.73
2022-09-21T00:30:38.892Z,23.79
2022-09-21T00:32:38.752Z,23.73
2022-09-21T00:34:38.809Z,23.72
2022-09-21T00:36:38.875Z,23.71
2022-09-21T00:38:38.840Z,23.80
2022-09-21T00:40:38.773Z,23.76
2022-09-21T00:42:38.780Z,23.72
2022-09-21T00:44:38.723Z,23.74
2022-09-21T00:46:38.919Z,23.68
2022-09-21T00:48:38.860Z,23.73
2022-09-21T00:50:38.900Z,23.68
2022-09-21T00:52:38.702Z,23.77
2022-09-21T00:54:38.883Z,23.73
2022-09-21T00:56:38.847Z,23.68
2022-09-21T00:58:38.873Z,23.68
2022-09-21T01:00:39.008Z,23.67
2022-09-21T01:02:38.871Z,23.65
2022-09-21T01:04:38.844Z,23.65
2022-09-21T01:06:38.774Z,23.66
2022-09-21T01:08:38.869Z,23.73
2022-09-21T01:10:38.866Z,23.66
2022-09-21T01:12:38.900Z,23.65
2022-09-21T01:14:38.914Z,23.45
2022-09-21T01:16:38.981Z,23.59
2022-09-21T01:18:38.964Z,23.60
2022-09-21T01:20:38.880Z,23.62
2022-09-21T01:22:38.876Z,23.62
2022-09-21T01:24:38.857Z,23.67
2022-09-21T01:26:38.919Z,23.62
2022-09-21T01:28:38.904Z,23.61
2022-09-21T01:30:38.896Z,23.62
2022-09-21T01:32:38.905Z,23.62
2022-09-21T01:34:38.863Z,23.57
2022-09-21T01:36:38.955Z,23.57
2022-09-21T01:38:38.831Z,23.59
2022-09-21T01:40:39.031Z,23.65
2022-09-21T01:42:38.862Z,23.57
2022-09-21T01:44:38.800Z,23.54
2022-09-21T01:46:38.930Z,23.59
2022-09-21T01:48:38.951Z,23.53
2022-09-21T01:50:38.947Z,23.56
2022-09-21T01:52:38.885Z,23.40
2022-09-21T01:54:38.892Z,23.61
2022-09-21T01:56:38.830Z,23.48
2022-09-21T01:58:38.858Z,23.42
2022-09-21T02:00:38.940Z,23.51
2022-09-21T02:02:39.013Z,23.31
2022-09-21T02:04:38.908Z,23.29
2022-09-21T02:06:38.945Z,23.54
2022-09-21T02:08:38.957Z,23.41
2022-09-21T02:10:38.840Z,22.88
2022-09-21T02:12:38.870Z,23.50
2022-09-21T02:14:38.979Z,23.44
2022-09-21T02:16:38.858Z,23.54
2022-09-21T02:18:38.965Z,23.45
2022-09-21T02:20:38.880Z,23.44
2022-09-21T02:22:38.884Z,23.48
2022-09-21T02:24:38.887Z,23.37
2022-09-21T02:26:38.907Z,23.39
2022-09-21T02:28:38.936Z,23.41
2022-09-21T02:30:38.867Z,23.53
2022-09-21T02:32:38.971Z,23.53
2022-09-21T02:34:38.998Z,23.52
2022-09-21T02:36:39.017Z,23.47
2022-09-21T02:38:38.965Z,23.54
2022-09-21T02:40:39.146Z,23.57
2022-09-21T02:42:39.040Z,23.52
2022-09-21T02:44:38.928Z,23.51
2022-09-21T02:46:39.106Z,23.56
2022-09-21T02:48:39.057Z,23.47
2022-09-21T02:50:39.044Z,23.50
2022-09-21T02:52:38.995Z,23.55
2022-09-21T02:54:39.005Z,23.50
2022-09-21T02:56:39.014Z,23.50
2022-09-21T02:58:38.967Z,23.53
2022-09-21T03:00:39.043Z,23.47
2022-09-21T03:02:39.020Z,23.48
2022-09-21T03:04:38.917Z,23.45
2022-09-21T03:06:38.965Z,23.49
2022-09-21T03:08:38.986Z,23.42
2022-09-21T03:10:38.935Z,23.38
2022-09-21T03:12:39.025Z,23.25
2022-09-21T03:14:39.047Z,23.25
2022-09-21T03:16:39.059Z,23.18
2022-09-21T03:18:39.021Z,23.31
2022-09-21T03:20:39.132Z,23.34
2022-09-21T03:22:39.032Z,23.26
2022-09-21T03:24:39.043Z,23.26
2022-09-21T03:26:39.096Z,23.13
2022-09-21T03:28:39.116Z,23.41
2022-09-21T03:30:39.022Z,23.39
2022-09-21T03:32:38.962Z,23.43
2022-09-21T03:34:39.061Z,23.43
2022-09-21T03:36:38.999Z,23.48
2022-09-21T03:38:39.058Z,23.47
2022-09-21T03:40:39.064Z,23.45
2022-09-21T03:42:39.107Z,23.51
2022-09-21T03:44:39.038Z,23.49
2022-09-21T03:46:39.045Z,23.46
2022-09-21T03:48:39.051Z,23.50
2022-09-21T03:50:39.099Z,23.44
2022-09-21T03:52:39.021Z,23.54
2022-09-21T03:54:39.136Z,23.49
2022-09-21T03:56:39.050Z,23.45
2022-09-21T03:58:39.089Z,23.44
2022-09-21T04:00:39.063Z,23.21
2022-09-21T04:02:39.148Z,23.25
2022-09-21T04:04:39.076Z,23.10
2022-09-21T04:06:39.148Z,23.22
2022-09-21T04:08:39.101Z,23.22
2022-09-21T04:10:39.040Z,23.16
2022-09-21T04:12:39.094Z,23.22
2022-09-21T04:14:39.085Z,23.13
2022-09-21T04:16:39.116Z,23.03
2022-09-21T04:18:38.993Z,23.12
2022-09-21T04:20:39.125Z,23.18
2022-09-21T04:22:43.290Z,23.22
2022-09-21T04:24:39.121Z,23.15
2022-09-21T04:26:39.061Z,23.23
2022-09-21T04:28:39.106Z,23.11
2022-09-21T04:30:39.433Z,23.27
2022-09-21T04:32:39.373Z,23.34
2022-09-21T04:34:39.053Z,23.29
2022-09-21T04:36:39.120Z,23.25
2022-09-21T04:38:38.998Z,23.35
2022-09-21T04:40:39.333Z,23.30
2022-09-21T04:42:39.117Z,23.26
2022-09-21T04:44:39.173Z,23.34
2022-09-21T04:46:39.152Z,23.34
2022-09-21T04:48:39.154Z,23.22
2022-09-21T04:50:39.150Z,23.38
2022-09-21T04:52:39.126Z,23.23
2022-09-21T04:54:38.990Z,23.25
2022-09-21T04:56:38.993Z,23.34
2022-09-21T04:58:39.136Z,23.34
2022-09-21T05:00:39.185Z,23.41
2022-09-21T05:02:39.173Z,23.34
2022-09-21T05:04:39.176Z,23.27
2022-09-21T05:06:39.138Z,23.27
2022-09-21T05:08:39.118Z,23.34
2022-09-21T05:10:39.135Z,23.29
2022-09-21T05:12:41.118Z,23.31
2022-09-21T05:14:39.103Z,23.30
2022-09-21T05:16:39.143Z,23.20
2022-09-21T05:18:39.184Z,23.24
2022-09-21T05:20:39.073Z,23.29
2022-09-21T05:22:39.087Z,23.34
2022-09-21T05:24:39.193Z,23.29
2022-09-21T05:26:39.179Z,23.25
2022-09-21T05:28:40.190Z,23.20
2022-09-21T05:30:44.667Z,23.24
2022-09-21T05:32:39.181Z,23.25
2022-09-21T05:34:39.229Z,23.21
2022-09-21T05:36:39.205Z,23.20
2022-09-21T05:38:39.216Z,23.25
2022-09-21T05:40:39.191Z,23.03
2022-09-21T05:42:39.265Z,23.23
2022-09-21T05:44:39.200Z,23.25
2022-09-21T05:46:39.089Z,23.26
2022-09-21T05:48:39.173Z,23.25
2022-09-21T05:50:39.218Z,23.22
2022-09-21T05:52:39.211Z,23.26
2022-09-21T05:54:39.253Z,23.34
2022-09-21T05:56:39.199Z,23.29
2022-09-21T05:58:39.128Z,23.26
2022-09-21T06:00:39.244Z,23.27
2022-09-21T06:02:39.259Z,23.34
2022-09-21T06:04:39.224Z,23.34
2022-09-21T06:06:39.227Z,23.26
2022-09-21T06:08:39.215Z,23.26
2022-09-21T06:10:39.214Z,23.25
2022-09-21T06:12:39.263Z,23.25
2022-09-21T06:14:39.144Z,23.25
2022-09-21T06:16:39.301Z,23.24
2022-09-21T06:18:39.209Z,23.25
2022-09-21T06:20:39.210Z,23.30
2022-09-21T06:22:39.151Z,23.25
2022-09-21T06:24:39.132Z,23.25
2022-09-21T06:26:39.254Z,23.25
2022-09-21T06:28:39.244Z,23.12
2022-09-21T06:30:39.190Z,23.25
2022-09-21T06:32:39.283Z,23.34
2022-09-21T06:34:39.267Z,23.41
2022-09-21T06:36:39.260Z,23.42
2022-09-21T06:38:39.187Z,23.44
2022-09-21T06:40:39.312Z,23.38
2022-09-21T06:42:39.140Z,23.40
2022-09-21T06:44:39.253Z,23.39
2022-09-21T06:46:39.298Z,23.38
2022-09-21T06:48:39.180Z,23.49
2022-09-21T06:50:39.289Z,23.49
2022-09-21T06:52:39.283Z,23.50
2022-09-21T06:54:39.250Z,23.39
2022-09-21T06:56:39.293Z,23.44
2022-09-21T06:58:39.278Z,23.42
2022-09-21T07:00:39.250Z,23.45
2022-09-21T07:02:39.290Z,23.32
2022-09-21T07:04:39.294Z,23.34
2022-09-21T07:06:39.297Z,23.37
2022-09-21T07:10:39.205Z,23.28
2022-09-21T07:12:39.312Z,23.51
2022-09-21T07:14:39.270Z,23.57
2022-09-21T07:16:39.376Z,23.53
2022-09-21T07:18:43.655Z,23.55
2022-09-21T07:20:39.301Z,23.53
2022-09-21T07:22:39.318Z,23.61
2022-09-21T07:24:39.167Z,23.59
2022-09-21T07:26:39.340Z,23.63
2022-09-21T07:28:39.254Z,23.57
2022-09-21T07:30:39.362Z,23.72
2022-09-21T07:32:39.289Z,23.65
2022-09-21T07:34:39.369Z,23.68
2022-09-21T07:36:39.318Z,23.61
2022-09-21T07:38:39.203Z,23.69
2022-09-21T07:40:39.479Z,23.65
2022-09-21T07:42:39.246Z,23.63
2022-09-21T07:44:39.522Z,23.63
2022-09-21T07:46:44.384Z,23.71
2022-09-21T07:48:39.198Z,23.80
2022-09-21T07:50:39.374Z,23.95
2022-09-21T07:52:39.354Z,23.89
2022-09-21T07:54:39.358Z,24.25
2022-09-21T07:56:39.413Z,24.52
2022-09-21T07:58:39.354Z,24.57
2022-09-21T08:00:39.411Z,24.59
2022-09-21T08:02:42.648Z,24.74
2022-09-21T08:04:39.384Z,24.95
2022-09-21T08:06:39.365Z,24.97
2022-09-21T08:08:39.370Z,25.06
2022-09-21T08:10:39.364Z,24.89
2022-09-21T08:12:39.367Z,25.22
2022-09-21T08:14:39.368Z,25.22
2022-09-21T08:16:39.387Z,25.51
2022-09-21T08:18:39.676Z,25.52
2022-09-21T08:20:39.352Z,25.65
2022-09-21T08:22:39.348Z,25.52
2022-09-21T08:24:39.400Z,25.72
2022-09-21T08:26:39.274Z,25.90
2022-09-21T08:28:39.348Z,25.86
2022-09-21T08:30:39.390Z,25.93
2022-09-21T08:32:50.954Z,26.08
2022-09-21T08:34:39.369Z,26.36
2022-09-21T08:36:39.368Z,26.64
2022-09-21T08:38:39.418Z,26.75
2022-09-21T08:40:39.494Z,26.76
2022-09-21T08:42:39.454Z,26.42
2022-09-21T08:44:39.313Z,26.42
2022-09-21T08:46:39.521Z,27.03
2022-09-21T08:48:39.240Z,27.16
2022-09-21T08:50:39.434Z,27.39
2022-09-21T08:52:39.355Z,27.16
2022-09-21T08:54:39.399Z,27.59
2022-09-21T08:57:00.982Z,25.89
2022-09-21T08:58:39.495Z,27.55
2022-09-21T09:00:39.447Z,27.40
2022-09-21T09:02:39.345Z,27.22
2022-09-21T09:04:39.432Z,27.56
2022-09-21T09:06:39.386Z,25.84
2022-09-21T09:08:39.323Z,27.64
2022-09-21T09:10:39.351Z,27.67
2022-09-21T09:12:39.433Z,25.79
2022-09-21T09:14:39.445Z,27.64
2022-09-21T09:16:39.449Z,25.81
2022-09-21T09:18:43.424Z,27.62
2022-09-21T09:20:39.402Z,27.62
2022-09-21T09:22:39.463Z,25.64
2022-09-21T09:24:39.439Z,27.88
2022-09-21T09:26:39.356Z,27.73
2022-09-21T09:28:39.438Z,25.79
2022-09-21T09:30:39.364Z,27.67
2022-09-21T09:32:39.465Z,25.75
2022-09-21T09:34:39.592Z,25.44
2022-09-21T09:36:57.981Z,27.78
2022-09-21T09:38:39.380Z,27.70
2022-09-21T09:40:39.523Z,25.65
2022-09-21T09:42:39.470Z,25.80
2022-09-21T09:44:39.455Z,27.84
2022-09-21T09:46:39.760Z,25.80
2022-09-21T09:48:39.435Z,25.70
2022-09-21T09:50:39.480Z,27.84
2022-09-21T09:52:39.447Z,27.70
2022-09-21T09:54:39.449Z,27.84
2022-09-21T09:56:39.644Z,26.36
2022-09-21T09:58:39.423Z,25.81
2022-09-21T10:00:39.399Z,25.80
2022-09-21T10:02:39.504Z,25.75
2022-09-21T10:04:39.375Z,25.76
2022-09-21T10:06:45.186Z,27.77
2022-09-21T10:08:39.484Z,27.60
2022-09-21T10:10:39.396Z,27.79
2022-09-21T10:12:39.371Z,27.80
2022-09-21T10:14:39.608Z,27.70
2022-09-21T10:16:39.500Z,25.65
2022-09-21T10:18:39.458Z,25.80
2022-09-21T10:20:39.506Z,25.72
2022-09-21T10:22:39.523Z,25.71
2022-09-21T10:24:39.533Z,27.70
2022-09-21T10:26:39.399Z,27.78
2022-09-21T10:28:39.418Z,27.78
2022-09-21T10:30:39.466Z,25.84
2022-09-21T10:32:39.510Z,25.97
2022-09-21T10:34:39.519Z,25.95
2022-09-21T10:36:39.508Z,26.07
2022-09-21T10:38:39.491Z,26.18
2022-09-21T10:40:39.782Z,26.25
2022-09-21T10:42:39.433Z,27.78
2022-09-21T10:44:39.575Z,26.68
2022-09-21T10:46:39.636Z,25.93
2022-09-21T10:48:39.461Z,26.14
2022-09-21T10:50:39.520Z,25.80
2022-09-21T10:52:39.371Z,26.08
2022-09-21T10:54:39.499Z,25.93
2022-09-21T10:56:39.428Z,25.99
2022-09-21T10:58:39.572Z,27.78
2022-09-21T11:00:39.569Z,25.09
2022-09-21T11:02:39.587Z,27.84
2022-09-21T11:04:39.491Z,26.01
2022-09-21T11:06:39.405Z,26.03
2022-09-21T11:08:39.528Z,25.89
2022-09-21T11:10:39.554Z,26.21
2022-09-21T11:12:39.591Z,26.16
2022-09-21T11:14:39.488Z,27.88
2022-09-21T11:16:39.506Z,27.73
2022-09-21T11:18:39.606Z,27.78
2022-09-21T11:20:39.393Z,27.34
2022-09-21T11:22:39.448Z,25.81
2022-09-21T11:24:39.527Z,25.97
2022-09-21T11:26:39.548Z,25.90
2022-09-21T11:28:39.612Z,25.91
2022-09-21T11:30:39.461Z,26.04
2022-09-21T11:32:39.537Z,26.82
2022-09-21T11:34:39.452Z,27.76
2022-09-21T11:36:39.504Z,27.81
2022-09-21T11:38:42.661Z,27.79
2022-09-21T11:40:39.814Z,27.95
2022-09-21T11:42:39.576Z,26.22
2022-09-21T11:44:39.602Z,26.18
2022-09-21T11:46:39.418Z,26.22
2022-09-21T11:48:39.617Z,26.17
2022-09-21T11:50:39.714Z,25.97
2022-09-21T11:52:39.598Z,27.63
2022-09-21T11:54:39.529Z,26.08
2022-09-21T11:56:39.586Z,27.86
2022-09-21T11:58:39.622Z,26.46
2022-09-21T12:00:39.457Z,26.24
2022-09-21T12:02:39.786Z,26.16
2022-09-21T12:04:39.642Z,26.11
2022-09-21T12:06:39.577Z,26.20
2022-09-21T12:08:39.623Z,27.62
2022-09-21T12:10:39.634Z,27.73
2022-09-21T12:12:39.633Z,27.65
2022-09-21T12:14:39.529Z,27.75
2022-09-21T12:16:39.661Z,27.78
2022-09-21T12:18:42.548Z,25.55
2022-09-21T12:20:39.670Z,26.02
2022-09-21T12:22:39.763Z,26.13
2022-09-21T12:24:39.651Z,26.08
2022-09-21T12:26:39.543Z,25.99
2022-09-21T12:28:39.635Z,27.91
2022-09-21T12:30:39.683Z,24.90
2022-09-21T12:32:39.550Z,27.93
2022-09-21T12:34:39.650Z,26.24
2022-09-21T12:36:41.790Z,26.15
2022-09-21T12:38:39.583Z,26.26
2022-09-21T12:40:39.620Z,26.07
2022-09-21T12:42:39.577Z,25.11
2022-09-21T12:44:42.682Z,27.78
2022-09-21T12:46:39.693Z,27.94
2022-09-21T12:48:39.659Z,27.79
2022-09-21T12:50:39.670Z,26.20
2022-09-21T12:52:39.665Z,26.28
2022-09-21T12:54:42.274Z,26.10
2022-09-21T12:56:39.697Z,25.81
2022-09-21T12:58:39.675Z,27.74
2022-09-21T13:00:39.577Z,27.37
2022-09-21T13:02:39.845Z,27.83
2022-09-21T13:04:39.678Z,26.22
2022-09-21T13:06:39.643Z,26.21
2022-09-21T13:08:39.746Z,26.43
2022-09-21T13:10:39.658Z,25.99
2022-09-21T13:12:39.680Z,27.83
2022-09-21T13:14:39.725Z,27.90
2022-09-21T13:16:39.760Z,27.85
2022-09-21T13:18:39.696Z,27.94
2022-09-21T13:20:39.712Z,27.80
2022-09-21T13:22:39.775Z,26.22
2022-09-21T13:24:39.780Z,26.07
2022-09-21T13:26:40.080Z,26.13
2022-09-21T13:28:39.619Z,26.22
2022-09-21T13:30:39.719Z,26.95
2022-09-21T13:32:39.764Z,27.78
2022-09-21T13:34:39.687Z,28.00
2022-09-21T13:36:39.719Z,27.78
2022-09-21T13:38:39.660Z,25.78
2022-09-21T13:40:39.750Z,25.82
2022-09-21T13:42:39.578Z,25.85
2022-09-21T13:44:39.721Z,25.89
2022-09-21T13:46:39.581Z,27.91
2022-09-21T13:48:39.747Z,27.81
2022-09-21T13:50:39.748Z,27.66
2022-09-21T13:52:39.737Z,26.11
2022-09-21T13:54:39.725Z,26.22
2022-09-21T13:56:39.778Z,26.17
2022-09-21T13:58:39.603Z,26.18
2022-09-21T14:00:39.781Z,26.10
2022-09-21T14:02:39.643Z,27.73
2022-09-21T14:04:39.765Z,27.88
2022-09-21T14:06:39.769Z,27.78
2022-09-21T14:08:39.715Z,27.76
2022-09-21T14:10:39.761Z,27.70
2022-09-21T14:12:39.725Z,26.18
2022-09-21T14:14:39.777Z,26.18
2022-09-21T14:16:39.859Z,26.14
2022-09-21T14:18:39.665Z,26.08
2022-09-21T14:20:39.970Z,27.78
2022-09-21T14:22:39.717Z,27.10
2022-09-21T14:24:39.802Z,27.78
2022-09-21T14:26:39.661Z,27.16
2022-09-21T14:28:39.782Z,25.80
2022-09-21T14:30:39.645Z,25.84
2022-09-21T14:32:39.640Z,25.86
2022-09-21T14:34:39.731Z,25.91
2022-09-21T14:36:39.722Z,25.91
2022-09-21T14:38:39.783Z,27.63
2022-09-21T14:40:39.898Z,27.74
2022-09-21T14:42:39.776Z,27.58
2022-09-21T14:44:39.746Z,25.81
2022-09-21T14:46:39.873Z,25.91
2022-09-21T14:48:39.811Z,25.51
2022-09-21T14:50:39.644Z,26.48
2022-09-21T14:52:39.781Z,25.83
2022-09-21T14:54:39.751Z,27.09
2022-09-21T14:56:39.793Z,25.92
2022-09-21T14:58:44.299Z,27.76
2022-09-21T15:00:39.781Z,25.85
2022-09-21T15:02:39.823Z,25.95
2022-09-21T15:04:43.920Z,26.07
2022-09-21T15:06:39.816Z,25.96
2022-09-21T15:08:39.790Z,25.95
2022-09-21T15:10:39.847Z,25.43
2022-09-21T15:12:39.817Z,24.69
2022-09-21T15:14:39.793Z,24.50
2022-09-21T15:16:39.899Z,24.69
2022-09-21T15:18:39.801Z,25.08
2022-09-21T15:20:39.705Z,25.06
2022-09-21T15:22:39.792Z,24.98
2022-09-21T15:24:39.822Z,24.97
2022-09-21T15:26:39.844Z,24.94
2022-09-21T15:29:04.990Z,24.89
2022-09-21T15:30:39.856Z,24.38
2022-09-21T15:32:39.865Z,24.48
2022-09-21T15:34:39.864Z,24.24
2022-09-21T15:36:39.871Z,24.66
2022-09-21T15:38:39.748Z,24.66
2022-09-21T15:40:39.898Z,24.66
2022-09-21T15:42:39.818Z,24.64
2022-09-21T15:44:39.903Z,24.78
2022-09-21T15:46:39.889Z,24.76
2022-09-21T15:48:39.715Z,24.72
2022-09-21T15:50:39.846Z,24.40
2022-09-21T15:52:39.767Z,24.20
2022-09-21T15:54:39.935Z,24.49
2022-09-21T15:56:39.836Z,24.61
2022-09-21T15:58:39.704Z,24.66
2022-09-21T16:00:39.894Z,24.63
2022-09-21T16:02:39.936Z,24.64
2022-09-21T16:04:39.756Z,24.64
2022-09-21T16:06:39.762Z,24.61
2022-09-21T16:08:39.885Z,25.05
2022-09-21T16:10:39.925Z,24.66
2022-09-21T16:12:39.917Z,24.63
2022-09-21T16:14:39.857Z,24.66
2022-09-21T16:16:40.303Z,24.55
2022-09-21T16:18:39.866Z,24.27
2022-09-21T16:20:39.917Z,24.24
2022-09-21T16:22:39.781Z,24.54
2022-09-21T16:24:39.921Z,24.55
2022-09-21T16:26:39.839Z,24.52
2022-09-21T16:28:39.797Z,24.52
2022-09-21T16:30:39.900Z,24.51
2022-09-21T16:32:39.909Z,24.55
2022-09-21T16:34:39.930Z,24.48
2022-09-21T16:36:39.908Z,24.51
2022-09-21T16:38:39.920Z,24.43
2022-09-21T16:40:39.950Z,24.38
2022-09-21T16:42:39.885Z,24.43
2022-09-21T16:44:39.881Z,24.46
2022-09-21T16:46:39.977Z,24.42
2022-09-21T16:48:39.888Z,24.43
2022-09-21T16:50:39.848Z,24.43
2022-09-21T16:52:39.919Z,24.51
2022-09-21T16:54:39.955Z,24.30
2022-09-21T16:56:39.895Z,24.30
2022-09-21T16:58:39.933Z,24.30
2022-09-21T17:00:40.048Z,24.38
2022-09-21T17:02:39.959Z,24.38
2022-09-21T17:04:39.841Z,24.27
2022-09-21T17:06:39.917Z,24.28
2022-09-21T17:08:39.980Z,24.24
2022-09-21T17:10:39.962Z,24.24
2022-09-21T17:12:39.877Z,24.28
2022-09-21T17:14:43.075Z,24.20
2022-09-21T17:16:39.957Z,24.16
2022-09-21T17:18:39.947Z,24.23
2022-09-21T17:20:39.948Z,24.34
2022-09-21T17:22:39.955Z,24.27
2022-09-21T17:24:50.270Z,24.27
2022-09-21T17:26:39.915Z,24.23
2022-09-21T17:28:39.994Z,24.26
2022-09-21T17:30:39.877Z,24.30
2022-09-21T17:32:39.847Z,24.23
2022-09-21T17:34:39.916Z,24.30
2022-09-21T17:36:39.916Z,24.28
2022-09-21T17:38:39.975Z,24.22
2022-09-21T17:40:39.960Z,24.20
2022-09-21T17:42:39.950Z,24.20
2022-09-21T17:44:39.853Z,24.20
2022-09-21T17:46:40.057Z,24.23
2022-09-21T17:48:40.010Z,24.14
2022-09-21T17:50:39.984Z,24.19
2022-09-21T17:52:39.921Z,24.20
2022-09-21T17:54:39.977Z,24.16
2022-09-21T17:56:40.007Z,24.14
2022-09-21T17:58:40.019Z,23.96
2022-09-21T18:00:39.935Z,24.05
2022-09-21T18:02:40.000Z,24.21
2022-09-21T18:04:40.093Z,24.10
2022-09-21T18:06:39.892Z,24.09
2022-09-21T18:08:40.025Z,24.12
2022-09-21T18:10:40.139Z,24.15
2022-09-21T18:12:40.017Z,24.12
2022-09-21T18:14:40.118Z,24.09
2022-09-21T18:16:39.958Z,24.13
2022-09-21T18:18:39.936Z,24.23
2022-09-21T18:20:39.994Z,24.12
2022-09-21T18:22:39.863Z,24.16
2022-09-21T18:24:40.134Z,24.12
2022-09-21T18:26:40.057Z,24.14
2022-09-21T18:28:39.988Z,24.20
2022-09-21T18:30:41.490Z,24.07
2022-09-21T18:32:40.057Z,24.07
2022-09-21T18:34:40.016Z,24.04
2022-09-21T18:36:40.083Z,24.02
2022-09-21T18:38:40.072Z,24.03
2022-09-21T18:40:40.190Z,24.08
2022-09-21T18:42:40.427Z,24.10
2022-09-21T18:44:40.171Z,24.10
2022-09-21T18:46:40.142Z,23.93
2022-09-21T18:48:40.056Z,23.95
2022-09-21T18:50:40.088Z,23.82
2022-09-21T18:52:40.044Z,23.90
2022-09-21T18:54:40.099Z,23.90
2022-09-21T18:56:40.074Z,23.88
2022-09-21T18:58:40.090Z,24.02
2022-09-21T19:00:39.915Z,24.19
2022-09-21T19:02:53.497Z,24.11
2022-09-21T19:04:40.103Z,24.10
2022-09-21T19:06:40.081Z,24.19
2022-09-21T19:08:40.156Z,24.10
2022-09-21T19:10:40.089Z,24.05
2022-09-21T19:12:40.243Z,24.09
2022-09-21T19:14:39.992Z,24.12
2022-09-21T19:16:40.218Z,24.23
2022-09-21T19:18:40.286Z,24.20
2022-09-21T19:20:40.027Z,24.10
2022-09-21T19:22:40.092Z,24.12
2022-09-21T19:24:40.558Z,24.10
2022-09-21T19:26:40.051Z,24.05
2022-09-21T19:28:40.001Z,24.05
2022-09-21T19:30:40.110Z,24.00
2022-09-21T19:32:40.110Z,24.12
2022-09-21T19:34:40.103Z,24.11
2022-09-21T19:36:40.107Z,24.15
2022-09-21T19:38:40.127Z,24.19
2022-09-21T19:40:40.250Z,24.10
2022-09-21T19:42:40.116Z,24.04
2022-09-21T19:44:39.981Z,24.10
2022-09-21T19:46:40.119Z,24.04
2022-09-21T19:48:40.032Z,24.04
2022-09-21T19:50:40.883Z,24.05
2022-09-21T19:52:40.156Z,24.06
2022-09-21T19:54:40.184Z,24.04
2022-09-21T19:56:40.034Z,24.02
2022-09-21T19:58:39.995Z,24.04
2022-09-21T20:00:40.164Z,24.04
2022-09-21T20:02:40.137Z,24.08
2022-09-21T20:04:40.174Z,24.04
2022-09-21T20:06:39.997Z,23.98
2022-09-21T20:08:40.144Z,23.97
2022-09-21T20:10:40.065Z,24.05
2022-09-21T20:12:40.220Z,24.02
2022-09-21T20:14:40.170Z,23.98
2022-09-21T20:16:40.258Z,24.02
2022-09-21T20:18:40.105Z,24.01
2022-09-21T20:20:40.025Z,23.98
2022-09-21T20:22:40.128Z,24.01
2022-09-21T20:24:40.177Z,24.00
2022-09-21T20:26:40.139Z,24.02
2022-09-21T20:28:40.197Z,24.01
2022-09-21T20:30:40.174Z,23.98
2022-09-21T20:32:40.094Z,23.97
2022-09-21T20:34:40.219Z,24.00
2022-09-21T20:36:40.033Z,23.96
2022-09-21T20:38:40.172Z,23.94
2022-09-21T20:40:40.198Z,23.96
2022-09-21T20:42:40.154Z,23.96
2022-09-21T20:44:40.212Z,23.96
2022-09-21T20:46:40.203Z,23.96
2022-09-21T20:48:40.161Z,23.90
2022-09-21T20:50:40.217Z,23.96
2022-09-21T20:52:40.193Z,24.00
2022-09-21T20:54:40.130Z,23.93
2022-09-21T20:56:40.190Z,23.91
2022-09-21T20:58:40.214Z,23.91
2022-09-21T21:00:40.125Z,23.91
2022-09-21T21:02:40.230Z,23.91
2022-09-21T21:04:40.201Z,23.91
2022-09-21T21:06:40.199Z,23.89
2022-09-21T21:08:40.102Z,23.84
2022-09-21T21:10:40.164Z,23.91
2022-09-21T21:12:40.184Z,23.87
2022-09-21T21:14:40.156Z,23.88
2022-09-21T21:16:40.262Z,23.96
2022-09-21T21:18:40.192Z,23.95
2022-09-21T21:20:40.161Z,23.96
2022-09-21T21:22:40.226Z,23.86
2022-09-21T21:24:40.230Z,23.86
2022-09-21T21:27:00.708Z,23.82
2022-09-21T21:28:40.278Z,23.96
2022-09-21T21:30:40.220Z,23.97
2022-09-21T21:32:40.167Z,23.91
2022-09-21T21:34:40.260Z,23.94
2022-09-21T21:36:40.221Z,23.86
2022-09-21T21:38:40.206Z,23.92
2022-09-21T21:40:40.257Z,23.84
2022-09-21T21:42:40.190Z,23.84
2022-09-21T21:44:40.271Z,23.83
2022-09-21T21:46:40.276Z,23.82
2022-09-21T21:48:40.270Z,23.82
2022-09-21T21:50:40.331Z,23.76
2022-09-21T21:52:40.217Z,23.81
2022-09-21T21:54:40.182Z,23.86
2022-09-21T21:56:40.159Z,23.87
2022-09-21T21:58:40.222Z,23.82
2022-09-21T22:00:40.374Z,23.84
2022-09-21T22:02:40.354Z,23.81
2022-09-21T22:04:40.142Z,23.81
2022-09-21T22:06:40.211Z,23.81
2022-09-21T22:08:40.355Z,23.77
2022-09-21T22:10:40.258Z,23.81
2022-09-21T22:12:40.307Z,23.73
2022-09-21T22:14:40.300Z,23.70
2022-09-21T22:16:40.342Z,23.68
2022-09-21T22:18:40.428Z,23.69
2022-09-21T22:20:40.335Z,23.60
2022-09-21T22:22:40.218Z,23.73
2022-09-21T22:24:40.313Z,23.81
2022-09-21T22:26:40.231Z,23.70
2022-09-21T22:28:40.296Z,23.65
2022-09-21T22:30:40.374Z,23.70
2022-09-21T22:32:40.300Z,23.70
2022-09-21T22:34:40.307Z,23.63
2022-09-21T22:36:40.578Z,23.73
2022-09-21T22:38:42.967Z,23.61
2022-09-21T22:40:40.239Z,23.57
2022-09-21T22:42:40.341Z,23.58
2022-09-21T22:44:40.296Z,23.72
2022-09-21T22:46:40.296Z,23.81
2022-09-21T22:48:40.229Z,23.70
2022-09-21T22:50:40.345Z,23.73
2022-09-21T22:52:40.304Z,23.72
2022-09-21T22:54:40.335Z,23.69
2022-09-21T22:56:40.272Z,23.73
2022-09-21T22:58:40.332Z,23.73
2022-09-21T23:00:40.283Z,23.77
2022-09-21T23:02:40.329Z,23.71
2022-09-21T23:04:40.330Z,23.79
2022-09-21T23:06:40.296Z,23.73
2022-09-21T23:08:40.272Z,23.72
2022-09-21T23:10:40.354Z,23.73
2022-09-21T23:12:40.314Z,23.79
2022-09-21T23:14:40.442Z,23.68
2022-09-21T23:16:40.262Z,23.67
2022-09-21T23:18:40.378Z,23.65
2022-09-21T23:20:40.283Z,23.65
2022-09-21T23:22:40.364Z,23.60
2022-09-21T23:24:40.350Z,23.62
2022-09-21T23:26:40.202Z,23.66
2022-09-21T23:28:40.365Z,23.53
2022-09-21T23:30:40.444Z,23.61
2022-09-21T23:32:40.407Z,23.52
2022-09-21T23:34:40.380Z,23.49
2022-09-21T23:36:40.412Z,23.53
2022-09-21T23:38:40.293Z,23.45
2022-09-21T23:40:40.487Z,23.39
2022-09-21T23:42:40.378Z,23.59
2022-09-21T23:44:40.393Z,23.59
2022-09-21T23:46:40.438Z,23.73
2022-09-21T23:48:40.337Z,23.58
2022-09-21T23:50:40.398Z,23.69
2022-09-21T23:52:40.364Z,23.63
2022-09-21T23:54:40.403Z,23.57
2022-09-21T23:56:40.292Z,23.66
2022-09-21T23:58:40.239Z,23.62
